sensor_id;sensor_type;location;lat;lon;timestamp;temperature;humidity
55213;DHT22;41083;52.932;6.674;2023-09-18T00:00:40;17.20;99.90
55213;DHT22;41083;52.932;6.674;2023-09-18T00:03:08;17.20;99.90
55213;DHT22;41083;52.932;6.674;2023-09-18T00:05:34;17.10;99.90
55213;DHT22;41083;52.932;6.674;2023-09-18T00:07:59;17.10;99.90
55213;DHT22;41083;52.932;6.674;2023-09-18T00:10:27;17.10;99.90
55213;DHT22;41083;52.932;6.674;2023-09-18T00:12:54;17.10;99.90
55213;DHT22;41083;52.932;6.674;2023-09-18T00:15:20;17.10;99.90
55213;DHT22;41083;52.932;6.674;2023-09-18T00:17:45;17.10;99.90
55213;DHT22;41083;52.932;6.674;2023-09-18T00:20:11;17.10;99.90
55213;DHT22;41083;52.932;6.674;2023-09-18T00:22:37;17.00;99.90
55213;DHT22;41083;52.932;6.674;2023-09-18T00:25:03;17.10;99.90
55213;DHT22;41083;52.932;6.674;2023-09-18T00:27:29;17.00;99.90
55213;DHT22;41083;52.932;6.674;2023-09-18T00:29:54;17.00;99.90
55213;DHT22;41083;52.932;6.674;2023-09-18T00:32:20;17.00;99.90
55213;DHT22;41083;52.932;6.674;2023-09-18T00:34:46;17.00;99.90
55213;DHT22;41083;52.932;6.674;2023-09-18T00:37:11;17.00;99.90
55213;DHT22;41083;52.932;6.674;2023-09-18T00:39:38;17.00;99.90
55213;DHT22;41083;52.932;6.674;2023-09-18T00:42:03;16.90;99.90
55213;DHT22;41083;52.932;6.674;2023-09-18T00:44:29;16.90;99.90
55213;DHT22;41083;52.932;6.674;2023-09-18T00:46:55;16.90;99.90
55213;DHT22;41083;52.932;6.674;2023-09-18T00:49:22;16.90;99.90
55213;DHT22;41083;52.932;6.674;2023-09-18T00:51:49;16.90;99.90
55213;DHT22;41083;52.932;6.674;2023-09-18T00:54:17;16.90;99.90
55213;DHT22;41083;52.932;6.674;2023-09-18T00:56:45;16.90;99.90
55213;DHT22;41083;52.932;6.674;2023-09-18T00:59:11;16.80;99.90
55213;DHT22;41083;52.932;6.674;2023-09-18T01:01:38;16.80;99.90
55213;DHT22;41083;52.932;6.674;2023-09-18T01:04:04;16.80;99.90
55213;DHT22;41083;52.932;6.674;2023-09-18T01:06:30;16.80;99.90
55213;DHT22;41083;52.932;6.674;2023-09-18T01:08:56;16.80;99.90
55213;DHT22;41083;52.932;6.674;2023-09-18T01:11:32;16.80;99.90
55213;DHT22;41083;52.932;6.674;2023-09-18T01:14:37;16.90;99.90
55213;DHT22;41083;52.932;6.674;2023-09-18T01:17:05;16.90;99.90
55213;DHT22;41083;52.932;6.674;2023-09-18T01:19:45;16.90;99.90
55213;DHT22;41083;52.932;6.674;2023-09-18T01:22:13;16.90;99.90
55213;DHT22;41083;52.932;6.674;2023-09-18T01:24:40;16.90;99.90
55213;DHT22;41083;52.932;6.674;2023-09-18T01:27:11;17.00;99.90
55213;DHT22;41083;52.932;6.674;2023-09-18T01:29:40;17.00;99.90
55213;DHT22;41083;52.932;6.674;2023-09-18T01:32:06;17.00;99.90
55213;DHT22;41083;52.932;6.674;2023-09-18T01:34:48;17.00;99.90
55213;DHT22;41083;52.932;6.674;2023-09-18T01:37:21;17.00;99.90
55213;DHT22;41083;52.932;6.674;2023-09-18T01:39:50;17.10;99.90
55213;DHT22;41083;52.932;6.674;2023-09-18T01:42:16;17.10;99.90
55213;DHT22;41083;52.932;6.674;2023-09-18T01:44:42;17.10;99.90
55213;DHT22;41083;52.932;6.674;2023-09-18T01:47:10;17.10;99.90
55213;DHT22;41083;52.932;6.674;2023-09-18T01:49:39;17.10;99.90
55213;DHT22;41083;52.932;6.674;2023-09-18T01:52:06;17.10;99.90
55213;DHT22;41083;52.932;6.674;2023-09-18T01:54:33;17.10;99.90
55213;DHT22;41083;52.932;6.674;2023-09-18T01:56:59;17.10;99.90
55213;DHT22;41083;52.932;6.674;2023-09-18T01:59:25;17.10;99.90
55213;DHT22;41083;52.932;6.674;2023-09-18T02:01:52;17.10;99.90
55213;DHT22;41083;52.932;6.674;2023-09-18T02:04:18;17.10;99.90
55213;DHT22;41083;52.932;6.674;2023-09-18T02:06:44;17.10;99.90
55213;DHT22;41083;52.932;6.674;2023-09-18T02:09:10;17.10;99.90
55213;DHT22;41083;52.932;6.674;2023-09-18T02:11:40;17.10;99.90
55213;DHT22;41083;52.932;6.674;2023-09-18T02:14:06;17.10;99.90
55213;DHT22;41083;52.932;6.674;2023-09-18T02:16:37;17.10;99.90
55213;DHT22;41083;52.932;6.674;2023-09-18T02:19:03;17.10;99.90
55213;DHT22;41083;52.932;6.674;2023-09-18T02:21:30;17.10;99.90
55213;DHT22;41083;52.932;6.674;2023-09-18T02:23:56;17.10;99.90
55213;DHT22;41083;52.932;6.674;2023-09-18T02:26:22;17.10;99.90
55213;DHT22;41083;52.932;6.674;2023-09-18T02:28:48;17.10;99.90
55213;DHT22;41083;52.932;6.674;2023-09-18T02:31:14;17.10;99.90
55213;DHT22;41083;52.932;6.674;2023-09-18T02:33:41;17.10;99.90
55213;DHT22;41083;52.932;6.674;2023-09-18T02:36:07;17.20;99.90
55213;DHT22;41083;52.932;6.674;2023-09-18T02:38:33;17.10;99.90
55213;DHT22;41083;52.932;6.674;2023-09-18T02:40:59;17.20;99.90
55213;DHT22;41083;52.932;6.674;2023-09-18T02:43:25;17.20;99.90
55213;DHT22;41083;52.932;6.674;2023-09-18T02:45:51;17.20;99.90
55213;DHT22;41083;52.932;6.674;2023-09-18T02:48:17;17.10;99.90
55213;DHT22;41083;52.932;6.674;2023-09-18T02:50:43;17.20;99.90
55213;DHT22;41083;52.932;6.674;2023-09-18T02:53:17;17.20;99.90
55213;DHT22;41083;52.932;6.674;2023-09-18T02:55:43;17.20;99.90
55213;DHT22;41083;52.932;6.674;2023-09-18T02:58:08;17.20;99.90
55213;DHT22;41083;52.932;6.674;2023-09-18T03:00:40;17.10;99.90
55213;DHT22;41083;52.932;6.674;2023-09-18T03:03:06;17.10;99.90
55213;DHT22;41083;52.932;6.674;2023-09-18T03:05:31;17.20;99.90
55213;DHT22;41083;52.932;6.674;2023-09-18T03:07:57;17.20;99.90
55213;DHT22;41083;52.932;6.674;2023-09-18T03:10:22;17.20;99.90
55213;DHT22;41083;52.932;6.674;2023-09-18T03:12:48;17.20;99.90
55213;DHT22;41083;52.932;6.674;2023-09-18T03:15:14;17.20;99.90
55213;DHT22;41083;52.932;6.674;2023-09-18T03:17:40;17.20;99.90
55213;DHT22;41083;52.932;6.674;2023-09-18T03:20:08;17.10;99.90
55213;DHT22;41083;52.932;6.674;2023-09-18T03:22:34;17.20;99.90
55213;DHT22;41083;52.932;6.674;2023-09-18T03:25:00;17.20;99.90
55213;DHT22;41083;52.932;6.674;2023-09-18T03:27:25;17.20;99.90
55213;DHT22;41083;52.932;6.674;2023-09-18T03:29:54;17.20;99.90
55213;DHT22;41083;52.932;6.674;2023-09-18T03:32:20;17.20;99.90
55213;DHT22;41083;52.932;6.674;2023-09-18T03:34:46;17.20;99.90
55213;DHT22;41083;52.932;6.674;2023-09-18T03:37:12;17.20;99.90
55213;DHT22;41083;52.932;6.674;2023-09-18T03:39:37;17.20;99.90
55213;DHT22;41083;52.932;6.674;2023-09-18T03:42:03;17.20;99.90
55213;DHT22;41083;52.932;6.674;2023-09-18T03:44:29;17.20;99.90
55213;DHT22;41083;52.932;6.674;2023-09-18T03:46:54;17.20;99.90
55213;DHT22;41083;52.932;6.674;2023-09-18T03:49:20;17.20;99.90
55213;DHT22;41083;52.932;6.674;2023-09-18T03:51:45;17.20;99.90
55213;DHT22;41083;52.932;6.674;2023-09-18T03:54:11;17.20;99.90
55213;DHT22;41083;52.932;6.674;2023-09-18T03:56:37;17.20;99.90
55213;DHT22;41083;52.932;6.674;2023-09-18T03:59:02;17.20;99.90
55213;DHT22;41083;52.932;6.674;2023-09-18T04:01:30;17.20;99.90
55213;DHT22;41083;52.932;6.674;2023-09-18T04:03:55;17.20;99.90
55213;DHT22;41083;52.932;6.674;2023-09-18T04:06:21;17.20;99.90
55213;DHT22;41083;52.932;6.674;2023-09-18T04:08:50;17.20;99.90
55213;DHT22;41083;52.932;6.674;2023-09-18T04:11:16;17.20;99.90
55213;DHT22;41083;52.932;6.674;2023-09-18T04:13:42;17.20;99.90
55213;DHT22;41083;52.932;6.674;2023-09-18T04:16:07;17.20;99.90
55213;DHT22;41083;52.932;6.674;2023-09-18T04:18:33;17.20;99.90
55213;DHT22;41083;52.932;6.674;2023-09-18T04:20:59;17.20;99.90
55213;DHT22;41083;52.932;6.674;2023-09-18T04:23:26;17.20;99.90
55213;DHT22;41083;52.932;6.674;2023-09-18T04:25:53;17.10;99.90
55213;DHT22;41083;52.932;6.674;2023-09-18T04:28:21;17.10;99.90
55213;DHT22;41083;52.932;6.674;2023-09-18T04:30:47;17.20;99.90
55213;DHT22;41083;52.932;6.674;2023-09-18T04:33:16;17.20;99.90
55213;DHT22;41083;52.932;6.674;2023-09-18T04:35:43;17.20;99.90
55213;DHT22;41083;52.932;6.674;2023-09-18T04:38:08;17.20;99.90
55213;DHT22;41083;52.932;6.674;2023-09-18T04:40:36;17.20;99.90
55213;DHT22;41083;52.932;6.674;2023-09-18T04:43:02;17.20;99.90
55213;DHT22;41083;52.932;6.674;2023-09-18T04:45:30;17.20;99.90
55213;DHT22;41083;52.932;6.674;2023-09-18T04:47:55;17.20;99.90
55213;DHT22;41083;52.932;6.674;2023-09-18T04:50:22;17.20;99.90
55213;DHT22;41083;52.932;6.674;2023-09-18T04:52:48;17.20;99.90
55213;DHT22;41083;52.932;6.674;2023-09-18T04:55:16;17.20;99.90
55213;DHT22;41083;52.932;6.674;2023-09-18T04:57:41;17.20;99.90
55213;DHT22;41083;52.932;6.674;2023-09-18T05:00:07;17.30;99.90
55213;DHT22;41083;52.932;6.674;2023-09-18T05:02:34;17.20;99.90
55213;DHT22;41083;52.932;6.674;2023-09-18T05:05:00;17.30;99.90
55213;DHT22;41083;52.932;6.674;2023-09-18T05:07:26;17.30;99.90
55213;DHT22;41083;52.932;6.674;2023-09-18T05:09:52;17.30;99.90
55213;DHT22;41083;52.932;6.674;2023-09-18T05:12:18;17.30;99.90
55213;DHT22;41083;52.932;6.674;2023-09-18T05:14:44;17.30;99.90
55213;DHT22;41083;52.932;6.674;2023-09-18T05:17:16;17.30;99.90
55213;DHT22;41083;52.932;6.674;2023-09-18T05:19:43;17.30;99.90
55213;DHT22;41083;52.932;6.674;2023-09-18T05:22:09;17.30;99.90
55213;DHT22;41083;52.932;6.674;2023-09-18T05:24:38;17.30;99.90
55213;DHT22;41083;52.932;6.674;2023-09-18T05:27:04;17.40;99.90
55213;DHT22;41083;52.932;6.674;2023-09-18T05:29:32;17.30;99.90
55213;DHT22;41083;52.932;6.674;2023-09-18T05:31:57;17.40;99.90
55213;DHT22;41083;52.932;6.674;2023-09-18T05:34:23;17.40;99.90
55213;DHT22;41083;52.932;6.674;2023-09-18T05:36:48;17.40;99.90
55213;DHT22;41083;52.932;6.674;2023-09-18T05:39:14;17.40;99.90
55213;DHT22;41083;52.932;6.674;2023-09-18T05:41:40;17.40;99.90
55213;DHT22;41083;52.932;6.674;2023-09-18T05:44:06;17.40;99.90
55213;DHT22;41083;52.932;6.674;2023-09-18T05:46:34;17.40;99.90
55213;DHT22;41083;52.932;6.674;2023-09-18T05:49:00;17.40;99.90
55213;DHT22;41083;52.932;6.674;2023-09-18T05:51:26;17.50;99.90
55213;DHT22;41083;52.932;6.674;2023-09-18T05:53:52;17.50;99.90
55213;DHT22;41083;52.932;6.674;2023-09-18T05:56:18;17.50;99.90
55213;DHT22;41083;52.932;6.674;2023-09-18T05:58:44;17.50;99.90
55213;DHT22;41083;52.932;6.674;2023-09-18T06:01:09;17.50;99.90
55213;DHT22;41083;52.932;6.674;2023-09-18T06:03:35;17.50;99.90
55213;DHT22;41083;52.932;6.674;2023-09-18T06:06:07;17.60;99.90
55213;DHT22;41083;52.932;6.674;2023-09-18T06:08:35;17.60;99.90
55213;DHT22;41083;52.932;6.674;2023-09-18T06:11:01;17.60;99.90
55213;DHT22;41083;52.932;6.674;2023-09-18T06:13:27;17.60;99.90
55213;DHT22;41083;52.932;6.674;2023-09-18T06:15:56;17.60;99.90
55213;DHT22;41083;52.932;6.674;2023-09-18T06:18:22;17.70;99.90
55213;DHT22;41083;52.932;6.674;2023-09-18T06:20:49;17.60;99.90
55213;DHT22;41083;52.932;6.674;2023-09-18T06:23:15;17.70;99.90
55213;DHT22;41083;52.932;6.674;2023-09-18T06:25:40;17.70;99.90
55213;DHT22;41083;52.932;6.674;2023-09-18T06:28:06;17.70;99.90
55213;DHT22;41083;52.932;6.674;2023-09-18T06:30:32;17.80;99.90
55213;DHT22;41083;52.932;6.674;2023-09-18T06:33:02;17.70;99.90
55213;DHT22;41083;52.932;6.674;2023-09-18T06:35:29;17.70;99.90
55213;DHT22;41083;52.932;6.674;2023-09-18T06:37:55;17.80;99.90
55213;DHT22;41083;52.932;6.674;2023-09-18T06:40:24;17.80;99.90
55213;DHT22;41083;52.932;6.674;2023-09-18T06:42:50;17.80;99.90
55213;DHT22;41083;52.932;6.674;2023-09-18T06:45:17;17.80;99.90
55213;DHT22;41083;52.932;6.674;2023-09-18T06:47:42;17.80;99.90
55213;DHT22;41083;52.932;6.674;2023-09-18T06:50:08;17.70;99.90
55213;DHT22;41083;52.932;6.674;2023-09-18T06:52:34;17.80;99.90
55213;DHT22;41083;52.932;6.674;2023-09-18T06:55:00;17.80;99.90
55213;DHT22;41083;52.932;6.674;2023-09-18T06:57:26;17.80;99.90
55213;DHT22;41083;52.932;6.674;2023-09-18T06:59:53;17.80;99.90
55213;DHT22;41083;52.932;6.674;2023-09-18T07:02:18;17.90;99.90
55213;DHT22;41083;52.932;6.674;2023-09-18T07:04:44;17.90;99.90
55213;DHT22;41083;52.932;6.674;2023-09-18T07:07:13;18.00;99.90
55213;DHT22;41083;52.932;6.674;2023-09-18T07:09:40;17.90;99.90
55213;DHT22;41083;52.932;6.674;2023-09-18T07:12:07;18.00;99.90
55213;DHT22;41083;52.932;6.674;2023-09-18T07:14:33;18.00;99.90
55213;DHT22;41083;52.932;6.674;2023-09-18T07:16:59;18.00;99.90
55213;DHT22;41083;52.932;6.674;2023-09-18T07:19:26;18.00;99.90
55213;DHT22;41083;52.932;6.674;2023-09-18T07:21:51;17.90;99.90
55213;DHT22;41083;52.932;6.674;2023-09-18T07:24:17;17.90;99.90
55213;DHT22;41083;52.932;6.674;2023-09-18T07:26:47;17.90;99.90
55213;DHT22;41083;52.932;6.674;2023-09-18T07:29:13;17.90;99.90
55213;DHT22;41083;52.932;6.674;2023-09-18T07:31:41;17.90;99.90
55213;DHT22;41083;52.932;6.674;2023-09-18T07:34:06;17.90;99.90
55213;DHT22;41083;52.932;6.674;2023-09-18T07:36:32;17.90;99.90
55213;DHT22;41083;52.932;6.674;2023-09-18T07:38:57;17.80;99.90
55213;DHT22;41083;52.932;6.674;2023-09-18T07:41:23;17.80;99.90
55213;DHT22;41083;52.932;6.674;2023-09-18T07:43:50;17.80;99.90
55213;DHT22;41083;52.932;6.674;2023-09-18T07:46:16;17.90;99.90
55213;DHT22;41083;52.932;6.674;2023-09-18T07:48:41;17.80;99.90
55213;DHT22;41083;52.932;6.674;2023-09-18T07:51:13;17.90;99.90
55213;DHT22;41083;52.932;6.674;2023-09-18T07:53:39;17.90;99.90
55213;DHT22;41083;52.932;6.674;2023-09-18T07:56:05;18.00;99.90
55213;DHT22;41083;52.932;6.674;2023-09-18T07:58:31;18.00;99.90
55213;DHT22;41083;52.932;6.674;2023-09-18T08:00:58;18.00;99.90
55213;DHT22;41083;52.932;6.674;2023-09-18T08:03:24;18.10;99.90
55213;DHT22;41083;52.932;6.674;2023-09-18T08:05:54;18.10;99.90
55213;DHT22;41083;52.932;6.674;2023-09-18T08:08:21;18.10;99.90
55213;DHT22;41083;52.932;6.674;2023-09-18T08:10:49;18.10;99.90
55213;DHT22;41083;52.932;6.674;2023-09-18T08:13:15;18.10;99.90
55213;DHT22;41083;52.932;6.674;2023-09-18T08:15:41;18.10;99.90
55213;DHT22;41083;52.932;6.674;2023-09-18T08:18:07;18.00;99.90
55213;DHT22;41083;52.932;6.674;2023-09-18T08:20:33;18.10;99.90
55213;DHT22;41083;52.932;6.674;2023-09-18T08:22:58;18.10;99.90
55213;DHT22;41083;52.932;6.674;2023-09-18T08:25:26;18.10;99.90
55213;DHT22;41083;52.932;6.674;2023-09-18T08:27:52;18.10;99.90
55213;DHT22;41083;52.932;6.674;2023-09-18T08:30:18;18.10;99.90
55213;DHT22;41083;52.932;6.674;2023-09-18T08:32:46;18.10;99.90
55213;DHT22;41083;52.932;6.674;2023-09-18T08:35:12;18.10;99.90
55213;DHT22;41083;52.932;6.674;2023-09-18T08:37:40;18.10;99.90
55213;DHT22;41083;52.932;6.674;2023-09-18T08:40:09;18.10;99.90
55213;DHT22;41083;52.932;6.674;2023-09-18T08:42:38;18.10;99.90
55213;DHT22;41083;52.932;6.674;2023-09-18T08:45:07;18.10;99.90
55213;DHT22;41083;52.932;6.674;2023-09-18T08:47:34;18.20;99.90
55213;DHT22;41083;52.932;6.674;2023-09-18T08:50:01;18.20;99.90
55213;DHT22;41083;52.932;6.674;2023-09-18T08:52:27;18.20;99.90
55213;DHT22;41083;52.932;6.674;2023-09-18T08:54:54;18.20;99.90
55213;DHT22;41083;52.932;6.674;2023-09-18T08:57:21;18.20;99.90
55213;DHT22;41083;52.932;6.674;2023-09-18T08:59:48;18.20;99.90
55213;DHT22;41083;52.932;6.674;2023-09-18T09:02:15;18.20;99.90
55213;DHT22;41083;52.932;6.674;2023-09-18T09:04:41;18.30;99.90
55213;DHT22;41083;52.932;6.674;2023-09-18T09:07:07;18.30;99.90
55213;DHT22;41083;52.932;6.674;2023-09-18T09:09:33;18.30;99.90
55213;DHT22;41083;52.932;6.674;2023-09-18T09:11:59;18.30;99.90
55213;DHT22;41083;52.932;6.674;2023-09-18T09:14:24;18.30;99.90
55213;DHT22;41083;52.932;6.674;2023-09-18T09:16:57;18.30;99.90
55213;DHT22;41083;52.932;6.674;2023-09-18T09:19:33;18.30;99.90
55213;DHT22;41083;52.932;6.674;2023-09-18T09:22:02;18.40;99.90
55213;DHT22;41083;52.932;6.674;2023-09-18T09:24:40;18.40;99.90
55213;DHT22;41083;52.932;6.674;2023-09-18T09:27:05;18.40;99.90
55213;DHT22;41083;52.932;6.674;2023-09-18T09:29:31;18.40;99.90
55213;DHT22;41083;52.932;6.674;2023-09-18T09:32:15;18.40;99.90
55213;DHT22;41083;52.932;6.674;2023-09-18T09:34:42;18.50;99.90
55213;DHT22;41083;52.932;6.674;2023-09-18T09:37:08;18.60;99.90
55213;DHT22;41083;52.932;6.674;2023-09-18T09:39:34;18.60;99.90
55213;DHT22;41083;52.932;6.674;2023-09-18T09:42:00;18.70;99.90
55213;DHT22;41083;52.932;6.674;2023-09-18T09:44:31;18.70;99.90
55213;DHT22;41083;52.932;6.674;2023-09-18T09:46:59;18.70;99.90
55213;DHT22;41083;52.932;6.674;2023-09-18T09:49:25;18.80;99.90
55213;DHT22;41083;52.932;6.674;2023-09-18T09:51:53;18.80;99.90
55213;DHT22;41083;52.932;6.674;2023-09-18T09:54:32;18.90;99.90
55213;DHT22;41083;52.932;6.674;2023-09-18T09:57:02;19.10;99.90
55213;DHT22;41083;52.932;6.674;2023-09-18T09:59:28;19.10;99.90
55213;DHT22;41083;52.932;6.674;2023-09-18T10:01:55;19.10;99.90
55213;DHT22;41083;52.932;6.674;2023-09-18T10:04:23;19.20;99.90
55213;DHT22;41083;52.932;6.674;2023-09-18T10:06:52;19.20;99.90
55213;DHT22;41083;52.932;6.674;2023-09-18T10:09:22;19.30;99.90
55213;DHT22;41083;52.932;6.674;2023-09-18T10:11:52;19.30;99.90
55213;DHT22;41083;52.932;6.674;2023-09-18T10:14:21;19.40;99.90
55213;DHT22;41083;52.932;6.674;2023-09-18T10:16:54;19.30;99.90
55213;DHT22;41083;52.932;6.674;2023-09-18T10:19:33;19.40;99.90
55213;DHT22;41083;52.932;6.674;2023-09-18T10:22:07;19.40;99.90
55213;DHT22;41083;52.932;6.674;2023-09-18T10:24:40;19.40;99.90
55213;DHT22;41083;52.932;6.674;2023-09-18T10:27:12;19.40;99.90
55213;DHT22;41083;52.932;6.674;2023-09-18T10:29:40;19.40;99.90
55213;DHT22;41083;52.932;6.674;2023-09-18T10:32:07;19.50;99.90
55213;DHT22;41083;52.932;6.674;2023-09-18T10:34:34;19.50;99.90
55213;DHT22;41083;52.932;6.674;2023-09-18T10:37:01;19.50;99.90
55213;DHT22;41083;52.932;6.674;2023-09-18T10:39:37;19.50;99.90
55213;DHT22;41083;52.932;6.674;2023-09-18T10:42:03;19.60;99.90
55213;DHT22;41083;52.932;6.674;2023-09-18T10:44:30;19.60;99.90
55213;DHT22;41083;52.932;6.674;2023-09-18T10:47:00;19.60;99.90
55213;DHT22;41083;52.932;6.674;2023-09-18T10:49:27;19.70;99.90
55213;DHT22;41083;52.932;6.674;2023-09-18T10:51:54;19.70;99.90
55213;DHT22;41083;52.932;6.674;2023-09-18T10:54:24;19.70;99.90
55213;DHT22;41083;52.932;6.674;2023-09-18T10:56:51;19.80;99.90
55213;DHT22;41083;52.932;6.674;2023-09-18T10:59:17;19.80;99.90
55213;DHT22;41083;52.932;6.674;2023-09-18T11:01:43;19.80;99.90
55213;DHT22;41083;52.932;6.674;2023-09-18T11:04:10;19.90;99.90
55213;DHT22;41083;52.932;6.674;2023-09-18T11:09:21;19.90;99.90
55213;DHT22;41083;52.932;6.674;2023-09-18T11:14:44;19.90;99.90
55213;DHT22;41083;52.932;6.674;2023-09-18T11:17:38;19.90;99.90
55213;DHT22;41083;52.932;6.674;2023-09-18T11:20:20;19.90;99.90
55213;DHT22;41083;52.932;6.674;2023-09-18T11:25:37;19.80;99.90
55213;DHT22;41083;52.932;6.674;2023-09-18T11:28:04;19.80;99.90
55213;DHT22;41083;52.932;6.674;2023-09-18T11:30:36;19.80;99.90
55213;DHT22;41083;52.932;6.674;2023-09-18T11:33:05;19.80;99.90
55213;DHT22;41083;52.932;6.674;2023-09-18T11:35:32;19.80;99.90
55213;DHT22;41083;52.932;6.674;2023-09-18T11:38:09;19.80;99.90
55213;DHT22;41083;52.932;6.674;2023-09-18T11:40:37;19.80;99.90
55213;DHT22;41083;52.932;6.674;2023-09-18T11:43:26;19.80;99.90
55213;DHT22;41083;52.932;6.674;2023-09-18T11:45:56;19.80;99.90
55213;DHT22;41083;52.932;6.674;2023-09-18T11:48:23;19.80;99.90
55213;DHT22;41083;52.932;6.674;2023-09-18T11:50:51;19.70;99.90
55213;DHT22;41083;52.932;6.674;2023-09-18T11:53:18;19.70;99.90
55213;DHT22;41083;52.932;6.674;2023-09-18T11:55:44;19.80;99.90
55213;DHT22;41083;52.932;6.674;2023-09-18T11:58:10;19.80;99.90
55213;DHT22;41083;52.932;6.674;2023-09-18T12:00:36;19.80;99.90
55213;DHT22;41083;52.932;6.674;2023-09-18T12:03:22;19.80;99.90
55213;DHT22;41083;52.932;6.674;2023-09-18T12:06:01;19.80;99.90
55213;DHT22;41083;52.932;6.674;2023-09-18T12:08:29;19.80;99.90
55213;DHT22;41083;52.932;6.674;2023-09-18T12:10:56;19.80;99.90
55213;DHT22;41083;52.932;6.674;2023-09-18T12:13:25;19.80;99.90
55213;DHT22;41083;52.932;6.674;2023-09-18T12:15:56;19.80;99.90
55213;DHT22;41083;52.932;6.674;2023-09-18T12:18:22;19.80;99.90
55213;DHT22;41083;52.932;6.674;2023-09-18T12:20:50;19.80;99.90
55213;DHT22;41083;52.932;6.674;2023-09-18T12:23:16;19.80;99.90
55213;DHT22;41083;52.932;6.674;2023-09-18T12:25:50;19.80;99.90
55213;DHT22;41083;52.932;6.674;2023-09-18T12:28:18;19.90;99.90
55213;DHT22;41083;52.932;6.674;2023-09-18T12:30:44;20.00;99.90
55213;DHT22;41083;52.932;6.674;2023-09-18T12:33:12;20.00;99.90
55213;DHT22;41083;52.932;6.674;2023-09-18T12:35:40;20.00;99.90
55213;DHT22;41083;52.932;6.674;2023-09-18T12:38:17;20.10;99.90
55213;DHT22;41083;52.932;6.674;2023-09-18T12:40:48;20.20;99.90
55213;DHT22;41083;52.932;6.674;2023-09-18T12:43:14;20.20;99.90
55213;DHT22;41083;52.932;6.674;2023-09-18T12:45:42;20.30;99.90
55213;DHT22;41083;52.932;6.674;2023-09-18T12:48:09;20.30;99.90
55213;DHT22;41083;52.932;6.674;2023-09-18T12:50:35;20.30;99.90
55213;DHT22;41083;52.932;6.674;2023-09-18T12:53:14;20.30;99.90
55213;DHT22;41083;52.932;6.674;2023-09-18T12:55:41;20.30;99.90
55213;DHT22;41083;52.932;6.674;2023-09-18T12:58:11;20.30;99.90
55213;DHT22;41083;52.932;6.674;2023-09-18T13:00:36;20.40;99.90
55213;DHT22;41083;52.932;6.674;2023-09-18T13:03:03;20.40;99.90
55213;DHT22;41083;52.932;6.674;2023-09-18T13:05:30;20.40;99.90
55213;DHT22;41083;52.932;6.674;2023-09-18T13:08:03;20.40;99.90
55213;DHT22;41083;52.932;6.674;2023-09-18T13:10:29;20.40;99.90
55213;DHT22;41083;52.932;6.674;2023-09-18T13:12:55;20.40;99.90
55213;DHT22;41083;52.932;6.674;2023-09-18T13:15:39;20.40;99.90
55213;DHT22;41083;52.932;6.674;2023-09-18T13:18:11;20.40;99.90
55213;DHT22;41083;52.932;6.674;2023-09-18T13:20:37;20.40;99.90
55213;DHT22;41083;52.932;6.674;2023-09-18T13:23:03;20.40;99.90
55213;DHT22;41083;52.932;6.674;2023-09-18T13:25:33;20.40;99.90
55213;DHT22;41083;52.932;6.674;2023-09-18T13:28:00;20.40;99.90
55213;DHT22;41083;52.932;6.674;2023-09-18T13:30:27;20.40;99.90
55213;DHT22;41083;52.932;6.674;2023-09-18T13:33:02;20.40;99.90
55213;DHT22;41083;52.932;6.674;2023-09-18T13:35:28;20.50;99.90
55213;DHT22;41083;52.932;6.674;2023-09-18T13:37:54;20.50;99.90
55213;DHT22;41083;52.932;6.674;2023-09-18T13:40:20;20.50;99.90
55213;DHT22;41083;52.932;6.674;2023-09-18T13:42:48;20.60;99.90
55213;DHT22;41083;52.932;6.674;2023-09-18T13:45:16;20.60;99.90
55213;DHT22;41083;52.932;6.674;2023-09-18T13:47:42;20.60;99.90
55213;DHT22;41083;52.932;6.674;2023-09-18T13:50:08;20.60;99.90
55213;DHT22;41083;52.932;6.674;2023-09-18T13:52:35;20.60;99.90
55213;DHT22;41083;52.932;6.674;2023-09-18T13:55:04;20.50;99.90
55213;DHT22;41083;52.932;6.674;2023-09-18T13:57:34;20.50;99.90
55213;DHT22;41083;52.932;6.674;2023-09-18T14:00:04;20.50;99.90
55213;DHT22;41083;52.932;6.674;2023-09-18T14:02:37;20.60;99.90
55213;DHT22;41083;52.932;6.674;2023-09-18T14:05:04;20.60;99.90
55213;DHT22;41083;52.932;6.674;2023-09-18T14:07:30;20.60;99.90
55213;DHT22;41083;52.932;6.674;2023-09-18T14:09:55;20.60;99.90
55213;DHT22;41083;52.932;6.674;2023-09-18T14:12:21;20.60;99.90
55213;DHT22;41083;52.932;6.674;2023-09-18T14:14:46;20.60;99.90
55213;DHT22;41083;52.932;6.674;2023-09-18T14:17:12;20.70;99.90
55213;DHT22;41083;52.932;6.674;2023-09-18T14:19:38;20.70;99.90
55213;DHT22;41083;52.932;6.674;2023-09-18T14:22:05;20.70;99.90
55213;DHT22;41083;52.932;6.674;2023-09-18T14:24:32;20.70;99.90
55213;DHT22;41083;52.932;6.674;2023-09-18T14:27:00;20.70;99.90
55213;DHT22;41083;52.932;6.674;2023-09-18T14:29:25;20.70;99.90
55213;DHT22;41083;52.932;6.674;2023-09-18T14:31:51;20.70;99.90
55213;DHT22;41083;52.932;6.674;2023-09-18T14:34:17;20.70;99.90
55213;DHT22;41083;52.932;6.674;2023-09-18T14:36:43;20.70;99.90
55213;DHT22;41083;52.932;6.674;2023-09-18T14:39:10;20.70;99.90
55213;DHT22;41083;52.932;6.674;2023-09-18T14:41:37;20.70;99.90
55213;DHT22;41083;52.932;6.674;2023-09-18T14:44:07;20.80;99.90
55213;DHT22;41083;52.932;6.674;2023-09-18T14:46:34;20.80;99.90
55213;DHT22;41083;52.932;6.674;2023-09-18T14:49:00;20.80;99.90
55213;DHT22;41083;52.932;6.674;2023-09-18T14:51:30;20.80;99.90
55213;DHT22;41083;52.932;6.674;2023-09-18T14:53:56;20.80;99.90
55213;DHT22;41083;52.932;6.674;2023-09-18T14:56:23;20.80;99.90
55213;DHT22;41083;52.932;6.674;2023-09-18T14:58:48;20.70;99.90
55213;DHT22;41083;52.932;6.674;2023-09-18T15:01:15;20.70;99.90
55213;DHT22;41083;52.932;6.674;2023-09-18T15:03:40;20.70;99.90
55213;DHT22;41083;52.932;6.674;2023-09-18T15:06:07;20.80;99.90
55213;DHT22;41083;52.932;6.674;2023-09-18T15:08:36;20.70;99.90
55213;DHT22;41083;52.932;6.674;2023-09-18T15:11:02;20.70;99.90
55213;DHT22;41083;52.932;6.674;2023-09-18T15:13:29;20.70;99.90
55213;DHT22;41083;52.932;6.674;2023-09-18T15:15:55;20.70;99.90
55213;DHT22;41083;52.932;6.674;2023-09-18T15:18:21;20.70;99.90
55213;DHT22;41083;52.932;6.674;2023-09-18T15:20:47;20.70;99.90
55213;DHT22;41083;52.932;6.674;2023-09-18T15:23:13;20.70;99.90
55213;DHT22;41083;52.932;6.674;2023-09-18T15:25:39;20.60;99.90
55213;DHT22;41083;52.932;6.674;2023-09-18T15:28:06;20.60;99.90
55213;DHT22;41083;52.932;6.674;2023-09-18T15:30:33;20.60;99.90
55213;DHT22;41083;52.932;6.674;2023-09-18T15:32:58;20.60;99.90
55213;DHT22;41083;52.932;6.674;2023-09-18T15:35:25;20.60;99.90
55213;DHT22;41083;52.932;6.674;2023-09-18T15:37:51;20.60;99.90
55213;DHT22;41083;52.932;6.674;2023-09-18T15:40:17;20.60;99.90